Time;durP1;ratioP1;P1;durP2;ratioP2;P2;SDS_P1;SDS_P2;PMS_P1;PMS_P2;Temp;Humidity;BMP_temperature;BMP_pressure;BME280_temperature;BME280_humidity;BME280_pressure;Samples;Min_cycle;Max_cycle;Signal;HPM_P1;HPM_P2
2023/03/02 00:00:44;;;;;;;14.95;9.10;;;3.80;99.90;;;;;;5071806;28;20423;-57
2023/03/02 00:03:12;;;;;;;15.25;9.23;;;3.80;99.90;;;;;;5072827;28;20518;-58
2023/03/02 00:05:41;;;;;;;15.63;9.68;;;3.70;99.90;;;;;;5074119;28;20419;-57
2023/03/02 00:08:09;;;;;;;16.15;9.65;;;3.70;99.90;;;;;;5072355;28;20432;-56
2023/03/02 00:10:37;;;;;;;16.48;10.20;;;3.70;99.90;;;;;;5073959;28;20424;-57
2023/03/02 00:13:05;;;;;;;14.80;9.40;;;3.70;99.90;;;;;;5074127;28;20482;-57
2023/03/02 00:15:32;;;;;;;13.77;9.80;;;3.70;99.90;;;;;;5077811;28;20453;-55
2023/03/02 00:18:00;;;;;;;17.80;10.07;;;3.80;99.90;;;;;;5077647;28;20835;-56
2023/03/02 00:20:27;;;;;;;15.48;9.20;;;3.80;99.90;;;;;;5077641;28;20423;-56
2023/03/02 00:22:54;;;;;;;15.30;9.40;;;3.70;99.90;;;;;;5077604;28;20441;-56
2023/03/02 00:25:22;;;;;;;14.20;9.70;;;3.90;99.90;;;;;;5077627;28;20412;-57
2023/03/02 00:27:49;;;;;;;14.07;9.10;;;3.70;99.90;;;;;;5077944;28;20435;-58
2023/03/02 00:30:16;;;;;;;14.45;9.73;;;3.60;99.90;;;;;;5076342;28;20430;-58
2023/03/02 00:32:44;;;;;;;12.40;9.02;;;3.50;99.90;;;;;;5077213;28;20438;-58
2023/03/02 00:35:13;;;;;;;17.33;11.68;;;3.60;99.90;;;;;;5077497;28;20423;-57
2023/03/02 00:37:40;;;;;;;15.68;10.00;;;3.50;99.90;;;;;;5077389;28;20731;-57
2023/03/02 00:40:09;;;;;;;16.23;9.82;;;3.70;99.90;;;;;;5077053;28;20727;-57
2023/03/02 00:42:37;;;;;;;17.37;10.30;;;3.70;99.90;;;;;;5077222;28;20707;-54
2023/03/02 00:45:05;;;;;;;15.20;9.60;;;3.70;99.90;;;;;;5076570;28;20424;-57
2023/03/02 00:47:35;;;;;;;16.33;10.40;;;3.80;99.90;;;;;;5074475;28;20737;-56
2023/03/02 00:50:02;;;;;;;17.63;10.27;;;3.70;99.90;;;;;;5076183;28;20415;-58
2023/03/02 00:52:30;;;;;;;15.80;9.43;;;3.70;99.90;;;;;;5076310;28;20685;-56
2023/03/02 00:54:58;;;;;;;14.00;9.23;;;3.60;99.90;;;;;;5075617;28;20455;-58
2023/03/02 00:57:25;;;;;;;17.13;11.48;;;3.60;99.90;;;;;;5075709;28;20434;-58
2023/03/02 00:59:52;;;;;;;14.13;9.90;;;3.50;99.90;;;;;;5076295;28;20423;-57
2023/03/02 01:02:20;;;;;;;16.05;9.45;;;3.50;99.90;;;;;;5077261;28;20893;-56
2023/03/02 01:04:48;;;;;;;15.70;10.25;;;3.40;99.90;;;;;;5077461;28;20777;-54
2023/03/02 01:07:19;;;;;;;15.90;10.00;;;3.50;99.90;;;;;;5077021;28;20442;-55
2023/03/02 01:09:48;;;;;;;14.07;10.00;;;3.50;99.90;;;;;;5076779;28;20810;-57
2023/03/02 01:12:15;;;;;;;15.57;10.77;;;3.30;99.90;;;;;;5077626;28;20488;-58
2023/03/02 01:14:45;;;;;;;13.00;9.50;;;3.20;99.90;;;;;;5077229;28;20423;-55
2023/03/02 01:17:13;;;;;;;15.88;9.93;;;3.10;99.90;;;;;;5077168;28;20477;-57
2023/03/02 01:19:41;;;;;;;14.18;10.18;;;3.10;99.90;;;;;;5077530;28;20732;-57
2023/03/02 01:22:09;;;;;;;14.93;9.65;;;3.10;99.90;;;;;;5076876;28;20438;-57
2023/03/02 01:24:36;;;;;;;16.65;11.07;;;3.10;99.90;;;;;;5075004;28;20419;-57
2023/03/02 01:27:05;;;;;;;16.10;10.13;;;3.20;99.90;;;;;;5075469;28;20510;-58
2023/03/02 01:29:32;;;;;;;15.77;10.80;;;3.20;99.90;;;;;;5075676;28;20420;-59
2023/03/02 01:31:59;;;;;;;16.55;11.25;;;3.10;99.90;;;;;;5076930;28;20431;-57
2023/03/02 01:34:26;;;;;;;14.35;9.48;;;3.00;99.90;;;;;;5076876;28;20727;-57
2023/03/02 01:36:54;;;;;;;16.15;11.57;;;3.00;99.90;;;;;;5076128;28;20419;-57
2023/03/02 01:39:21;;;;;;;14.65;10.30;;;2.90;99.90;;;;;;5075634;28;20420;-56
2023/03/02 01:41:50;;;;;;;14.40;10.35;;;2.80;99.90;;;;;;5076309;28;20835;-56
2023/03/02 01:44:43;;;;;;;18.10;11.60;;;2.80;99.90;;;;;;5075828;28;20424;-57
2023/03/02 01:47:17;;;;;;;16.42;10.73;;;2.90;99.90;;;;;;5076405;28;20851;-55
2023/03/02 01:49:49;;;;;;;18.17;11.18;;;3.00;99.90;;;;;;5076487;28;20430;-56
2023/03/02 01:52:18;;;;;;;19.00;11.77;;;3.00;99.90;;;;;;5075863;28;20874;-57
2023/03/02 01:54:48;;;;;;;17.33;11.40;;;3.00;99.90;;;;;;5075608;28;20419;-57
2023/03/02 01:57:19;;;;;;;16.07;11.20;;;2.90;99.90;;;;;;5075995;28;20922;-56
2023/03/02 01:59:50;;;;;;;16.80;11.43;;;3.00;99.90;;;;;;5075611;28;20419;-58
2023/03/02 02:02:17;;;;;;;15.93;10.77;;;2.90;99.90;;;;;;5074220;28;20583;-55
2023/03/02 02:04:46;;;;;;;16.10;10.57;;;2.90;99.90;;;;;;5074931;28;20423;-56
2023/03/02 02:07:13;;;;;;;14.00;10.40;;;2.90;99.90;;;;;;5076144;28;20443;-58
2023/03/02 02:09:44;;;;;;;15.32;11.50;;;3.00;99.90;;;;;;5074421;28;20849;-54
2023/03/02 02:12:16;;;;;;;15.77;10.75;;;3.00;99.90;;;;;;5074006;28;20431;-57
2023/03/02 02:14:44;;;;;;;15.13;10.40;;;3.00;99.90;;;;;;5075271;28;20423;-58
2023/03/02 02:17:12;;;;;;;19.60;12.23;;;3.10;99.90;;;;;;5073868;28;20419;-55
2023/03/02 02:19:54;;;;;;;17.70;11.15;;;3.00;99.90;;;;;;5075328;28;20416;-58
2023/03/02 02:22:34;;;;;;;18.30;12.15;;;2.90;99.90;;;;;;5074331;28;20435;-55
2023/03/02 02:25:06;;;;;;;15.15;10.27;;;2.90;99.90;;;;;;5075477;28;20422;-56
2023/03/02 02:27:35;;;;;;;16.30;11.63;;;2.80;99.90;;;;;;5075924;28;20442;-58
2023/03/02 02:30:07;;;;;;;16.85;10.80;;;2.80;99.90;;;;;;5075708;28;20424;-57
2023/03/02 02:32:38;;;;;;;16.92;10.70;;;2.80;99.90;;;;;;5074415;28;20510;-54
2023/03/02 02:35:10;;;;;;;20.67;12.20;;;2.80;99.90;;;;;;5075409;28;20442;-56
2023/03/02 02:37:41;;;;;;;16.92;11.07;;;2.80;99.90;;;;;;5074681;28;20869;-56
2023/03/02 02:40:14;;;;;;;19.13;11.77;;;2.70;99.90;;;;;;5075807;28;20416;-57
2023/03/02 02:42:45;;;;;;;19.05;11.43;;;2.60;99.90;;;;;;5075256;28;20432;-55
2023/03/02 02:45:20;;;;;;;15.63;10.63;;;2.60;99.90;;;;;;5074717;28;20839;-57
2023/03/02 02:47:48;;;;;;;17.50;11.02;;;2.60;99.90;;;;;;5075055;28;20435;-55
2023/03/02 02:50:19;;;;;;;17.17;11.20;;;2.70;99.90;;;;;;5073601;28;20423;-58
2023/03/02 02:52:50;;;;;;;19.97;11.37;;;2.80;99.90;;;;;;5074075;28;20488;-56
2023/03/02 02:55:22;;;;;;;19.30;11.75;;;2.70;99.90;;;;;;5074419;28;20486;-57
2023/03/02 02:57:53;;;;;;;17.23;11.10;;;2.80;99.90;;;;;;5075015;28;20450;-57
2023/03/02 03:00:22;;;;;;;18.35;11.73;;;2.70;99.90;;;;;;5074450;28;20427;-55
2023/03/02 03:02:58;;;;;;;20.88;12.73;;;2.70;99.90;;;;;;5074749;28;20427;-57
2023/03/02 03:05:25;;;;;;;17.38;11.30;;;2.60;99.90;;;;;;5074984;28;20427;-59
2023/03/02 03:07:52;;;;;;;16.58;11.43;;;2.50;99.90;;;;;;5074740;28;20439;-59
2023/03/02 03:10:26;;;;;;;19.83;12.43;;;2.60;99.90;;;;;;5075095;28;20420;-57
2023/03/02 03:12:55;;;;;;;15.50;10.10;;;2.60;99.90;;;;;;5074399;28;20766;-55
2023/03/02 03:15:23;;;;;;;18.83;11.80;;;2.60;99.90;;;;;;5074253;28;20674;-55
2023/03/02 03:17:55;;;;;;;18.48;10.70;;;2.60;99.90;;;;;;5074983;28;20836;-57
2023/03/02 03:20:23;;;;;;;17.95;11.35;;;2.60;99.90;;;;;;5074747;28;20790;-56
2023/03/02 03:22:52;;;;;;;15.75;10.88;;;2.50;99.90;;;;;;5074961;28;20431;-58
2023/03/02 03:25:19;;;;;;;19.27;11.27;;;2.50;99.90;;;;;;5074194;28;20850;-56
2023/03/02 03:27:46;;;;;;;17.40;12.15;;;2.40;99.90;;;;;;5075156;28;20458;-52
2023/03/02 03:30:16;;;;;;;16.70;11.45;;;2.40;99.90;;;;;;5074477;28;20420;-54
2023/03/02 03:32:43;;;;;;;18.05;11.73;;;2.40;99.90;;;;;;5075220;28;20430;-57
2023/03/02 03:35:11;;;;;;;17.25;11.95;;;2.50;99.90;;;;;;5074168;28;20419;-56
2023/03/02 03:37:40;;;;;;;19.27;11.52;;;2.50;99.90;;;;;;5074536;28;20420;-57
2023/03/02 03:40:09;;;;;;;17.17;12.20;;;2.50;99.90;;;;;;5074642;28;20751;-57
2023/03/02 03:42:37;;;;;;;17.88;12.60;;;2.50;99.90;;;;;;5075034;28;20869;-57
2023/03/02 03:45:08;;;;;;;15.98;10.77;;;2.50;99.90;;;;;;5074563;28;20427;-58
2023/03/02 03:47:37;;;;;;;16.60;10.57;;;2.50;99.90;;;;;;5074121;28;20479;-56
2023/03/02 03:50:04;;;;;;;16.65;11.73;;;2.40;99.90;;;;;;5078677;28;20423;-57
2023/03/02 03:52:31;;;;;;;17.98;11.45;;;2.30;99.90;;;;;;5078306;28;20431;-57
2023/03/02 03:54:59;;;;;;;16.08;10.10;;;2.20;99.90;;;;;;5077932;28;20422;-56
2023/03/02 03:57:27;;;;;;;16.25;10.07;;;2.10;99.90;;;;;;5078603;28;20427;-57
2023/03/02 03:59:54;;;;;;;16.25;10.75;;;2.10;99.90;;;;;;5078241;28;20434;-58
2023/03/02 04:02:22;;;;;;;17.95;11.10;;;2.10;99.90;;;;;;5077736;28;20782;-56
2023/03/02 04:04:50;;;;;;;19.13;11.70;;;2.10;99.90;;;;;;5077252;28;20415;-56
2023/03/02 04:07:19;;;;;;;16.70;11.40;;;2.20;99.90;;;;;;5078585;28;20427;-56
2023/03/02 04:09:46;;;;;;;16.35;10.90;;;2.10;99.90;;;;;;5078474;28;20739;-55
2023/03/02 04:12:13;;;;;;;18.35;10.85;;;2.10;99.90;;;;;;5078630;28;20439;-55
2023/03/02 04:14:40;;;;;;;17.42;11.75;;;2.10;99.90;;;;;;5078452;28;20415;-53
2023/03/02 04:17:07;;;;;;;16.30;10.80;;;2.30;99.90;;;;;;5077911;28;20436;-54
2023/03/02 04:19:36;;;;;;;19.17;11.68;;;2.20;99.90;;;;;;5077541;28;20423;-57
2023/03/02 04:22:04;;;;;;;17.92;11.90;;;2.20;99.90;;;;;;5077375;28;20529;-55
2023/03/02 04:24:32;;;;;;;19.38;10.55;;;2.10;99.90;;;;;;5076472;28;20426;-58
2023/03/02 04:26:59;;;;;;;18.95;10.98;;;2.10;99.90;;;;;;5077690;28;20424;-57
2023/03/02 04:29:26;;;;;;;17.40;11.30;;;2.10;99.90;;;;;;5078098;28;20431;-58
2023/03/02 04:31:53;;;;;;;18.83;12.10;;;2.00;99.90;;;;;;5077315;28;20427;-57
2023/03/02 04:34:20;;;;;;;16.55;11.15;;;2.10;99.90;;;;;;5077008;28;20422;-55
2023/03/02 04:36:47;;;;;;;17.42;11.80;;;2.20;99.90;;;;;;5077433;28;20444;-58
2023/03/02 04:39:18;;;;;;;18.95;11.15;;;2.10;99.90;;;;;;5076989;28;20420;-57
2023/03/02 04:41:46;;;;;;;18.08;11.50;;;2.10;99.90;;;;;;5076950;28;20423;-55
2023/03/02 04:44:13;;;;;;;18.77;11.85;;;2.00;99.90;;;;;;5076407;28;20424;-56
2023/03/02 04:46:41;;;;;;;17.55;12.15;;;1.90;99.90;;;;;;5075274;28;20450;-56
2023/03/02 04:49:08;;;;;;;19.00;11.60;;;1.90;99.90;;;;;;5076453;28;20432;-55
2023/03/02 04:51:40;;;;;;;16.98;11.23;;;2.00;99.90;;;;;;5077071;28;20466;-55
2023/03/02 04:54:10;;;;;;;19.15;12.35;;;2.00;99.90;;;;;;5077297;28;20415;-58
2023/03/02 04:56:39;;;;;;;22.33;11.93;;;2.10;99.90;;;;;;5077701;28;20426;-55
2023/03/02 04:59:06;;;;;;;19.38;12.57;;;2.10;99.90;;;;;;5076439;28;20404;-60
2023/03/02 05:01:34;;;;;;;17.45;11.23;;;2.10;99.90;;;;;;5075573;28;20839;-52
2023/03/02 05:04:01;;;;;;;18.10;11.82;;;2.10;99.90;;;;;;5073113;28;20426;-55
2023/03/02 05:06:28;;;;;;;16.75;10.57;;;2.20;99.90;;;;;;5073431;28;20874;-55
2023/03/02 05:08:58;;;;;;;17.23;11.90;;;2.30;99.90;;;;;;5072929;28;20438;-56
2023/03/02 05:11:25;;;;;;;18.70;12.15;;;2.30;99.90;;;;;;5072958;28;20523;-56
2023/03/02 05:13:57;;;;;;;18.92;11.55;;;2.30;99.90;;;;;;5073084;28;20897;-54
2023/03/02 05:16:25;;;;;;;17.88;12.50;;;2.40;99.90;;;;;;5074126;28;20428;-56
2023/03/02 05:18:52;;;;;;;18.08;12.25;;;2.30;99.90;;;;;;5074913;28;20412;-52
2023/03/02 05:21:19;;;;;;;17.35;10.65;;;2.20;99.90;;;;;;5075219;28;20420;-57
2023/03/02 05:23:46;;;;;;;17.90;12.02;;;2.00;99.90;;;;;;5075734;28;20427;-54
2023/03/02 05:26:14;;;;;;;19.30;13.07;;;1.90;99.90;;;;;;5075958;28;20428;-56
2023/03/02 05:28:41;;;;;;;19.05;11.82;;;1.90;99.90;;;;;;5075901;28;21058;-56
2023/03/02 05:31:13;;;;;;;19.63;12.40;;;1.80;99.90;;;;;;5076037;28;20439;-56
2023/03/02 05:33:40;;;;;;;18.80;11.60;;;1.80;99.90;;;;;;5076657;28;20420;-54
2023/03/02 05:36:07;;;;;;;19.97;11.50;;;1.80;99.90;;;;;;5076005;28;20457;-54
2023/03/02 05:38:35;;;;;;;18.17;12.15;;;2.00;99.90;;;;;;5074725;28;20866;-56
2023/03/02 05:41:02;;;;;;;17.85;11.40;;;2.00;99.90;;;;;;5074121;28;20431;-55
2023/03/02 05:43:30;;;;;;;18.67;11.73;;;2.00;99.90;;;;;;5076291;28;20420;-55
2023/03/02 05:45:59;;;;;;;15.40;11.23;;;2.10;99.90;;;;;;5074190;28;20782;-54
2023/03/02 05:48:28;;;;;;;22.00;12.57;;;2.10;99.90;;;;;;5074605;28;20432;-55
2023/03/02 05:50:55;;;;;;;17.63;12.13;;;2.10;99.90;;;;;;5073601;28;20855;-52
2023/03/02 05:53:22;;;;;;;19.60;12.02;;;2.00;99.90;;;;;;5074489;28;20416;-52
2023/03/02 05:55:50;;;;;;;21.80;12.23;;;2.00;99.90;;;;;;5074705;28;20420;-54
2023/03/02 05:58:19;;;;;;;15.55;11.23;;;2.10;99.90;;;;;;5075472;28;20723;-56
2023/03/02 06:00:47;;;;;;;16.58;11.65;;;2.30;99.90;;;;;;5076507;28;20430;-55
2023/03/02 06:03:15;;;;;;;18.83;11.90;;;2.30;99.90;;;;;;5074518;28;20427;-55
2023/03/02 06:05:43;;;;;;;17.40;12.13;;;2.40;99.90;;;;;;5072661;28;20706;-55
2023/03/02 06:08:10;;;;;;;17.33;11.95;;;2.50;99.90;;;;;;5069423;28;20727;-55
2023/03/02 06:10:37;;;;;;;17.17;11.80;;;2.60;99.90;;;;;;5071329;28;20501;-57
2023/03/02 06:13:05;;;;;;;18.00;12.00;;;2.70;99.90;;;;;;5072961;28;20424;-53
2023/03/02 06:15:32;;;;;;;19.40;13.00;;;2.60;99.90;;;;;;5074124;28;20514;-54
2023/03/02 06:17:59;;;;;;;18.08;12.38;;;2.50;99.90;;;;;;5073239;28;20416;-52
2023/03/02 06:20:26;;;;;;;18.83;12.63;;;2.40;99.90;;;;;;5073699;28;20685;-55
2023/03/02 06:22:54;;;;;;;19.65;11.88;;;2.60;99.90;;;;;;5073262;28;20714;-54
2023/03/02 06:25:23;;;;;;;18.77;10.90;;;2.60;99.90;;;;;;5071321;28;20717;-55
2023/03/02 06:27:52;;;;;;;18.83;12.00;;;2.60;99.90;;;;;;5072589;28;20598;-53
2023/03/02 06:30:21;;;;;;;21.25;12.88;;;2.50;99.90;;;;;;5070298;28;20431;-54
2023/03/02 06:32:48;;;;;;;19.45;12.70;;;2.60;99.90;;;;;;5071182;28;20766;-56
2023/03/02 06:35:16;;;;;;;18.95;11.52;;;2.70;99.90;;;;;;5073767;28;20765;-52
2023/03/02 06:37:43;;;;;;;15.52;10.95;;;2.80;99.90;;;;;;5074070;28;20724;-53
2023/03/02 06:40:13;;;;;;;17.48;10.93;;;2.70;99.90;;;;;;5072066;28;20811;-56
2023/03/02 06:42:42;;;;;;;15.15;11.10;;;2.80;99.90;;;;;;5070672;28;20427;-54
2023/03/02 06:45:12;;;;;;;16.42;11.35;;;2.70;99.90;;;;;;5071635;28;20447;-54
2023/03/02 06:47:39;;;;;;;17.27;11.68;;;2.80;99.90;;;;;;5069208;28;20431;-51
2023/03/02 06:50:08;;;;;;;17.45;12.30;;;2.90;99.90;;;;;;5070579;28;20737;-52
2023/03/02 06:52:38;;;;;;;15.45;10.77;;;2.80;99.90;;;;;;5070827;28;20431;-55
2023/03/02 06:55:06;;;;;;;18.00;11.50;;;2.90;99.90;;;;;;5068670;28;20846;-53
2023/03/02 06:57:34;;;;;;;18.97;11.47;;;2.80;99.90;;;;;;5070103;28;20424;-54
2023/03/02 07:00:06;;;;;;;16.65;11.30;;;2.70;99.90;;;;;;5070759;28;20739;-53
2023/03/02 07:02:33;;;;;;;17.58;11.60;;;2.60;99.90;;;;;;5070938;28;20503;-54
2023/03/02 07:05:00;;;;;;;16.17;11.00;;;2.60;99.90;;;;;;5072384;28;20419;-55
2023/03/02 07:07:27;;;;;;;15.48;11.27;;;2.60;99.90;;;;;;5073501;28;20434;-54
2023/03/02 07:09:54;;;;;;;19.50;12.65;;;2.60;99.90;;;;;;5069579;28;20464;-53
2023/03/02 07:12:21;;;;;;;14.75;10.38;;;2.50;99.90;;;;;;5068479;28;20434;-53
2023/03/02 07:14:50;;;;;;;18.02;11.52;;;2.90;99.90;;;;;;5071213;28;20423;-54
2023/03/02 07:17:17;;;;;;;19.05;12.00;;;3.20;99.90;;;;;;5070537;28;20423;-55
2023/03/02 07:19:44;;;;;;;14.85;9.93;;;3.10;99.90;;;;;;5072352;28;20459;-52
2023/03/02 07:22:11;;;;;;;17.05;10.55;;;3.30;99.90;;;;;;5081489;28;20430;-55
2023/03/02 07:24:38;;;;;;;16.50;12.05;;;3.50;99.90;;;;;;5084862;28;20425;-55
2023/03/02 07:27:05;;;;;;;16.63;10.45;;;3.60;99.90;;;;;;5081272;28;20840;-53
2023/03/02 07:29:32;;;;;;;16.40;10.30;;;3.40;99.90;;;;;;5075514;28;20439;-54
2023/03/02 07:32:01;;;;;;;16.58;10.40;;;3.40;99.90;;;;;;5071527;28;20440;-54
2023/03/02 07:34:28;;;;;;;15.85;10.30;;;3.50;99.90;;;;;;5081511;28;20423;-54
2023/03/02 07:36:55;;;;;;;15.80;10.83;;;3.70;99.90;;;;;;5082701;28;20508;-55
2023/03/02 07:39:22;;;;;;;17.33;11.40;;;3.40;99.90;;;;;;5082090;28;20486;-52
2023/03/02 07:41:49;;;;;;;17.25;10.82;;;3.10;99.90;;;;;;5080941;28;20451;-54
2023/03/02 07:44:16;;;;;;;17.83;11.32;;;3.20;99.90;;;;;;5083798;28;20423;-54
2023/03/02 07:46:44;;;;;;;19.05;11.18;;;3.50;99.90;;;;;;5078452;28;20457;-52
2023/03/02 07:49:12;;;;;;;16.48;10.38;;;3.50;99.90;;;;;;5079304;28;20933;-49
2023/03/02 07:51:40;;;;;;;18.60;11.03;;;3.50;99.90;;;;;;5078550;28;20424;-50
2023/03/02 07:54:08;;;;;;;17.60;10.07;;;3.80;99.90;;;;;;5072098;28;20426;-48
2023/03/02 07:56:36;;;;;;;15.60;10.23;;;3.70;99.90;;;;;;5086124;28;20949;-51
2023/03/02 07:59:03;;;;;;;14.63;10.07;;;4.00;99.90;;;;;;5076945;28;20786;-48
2023/03/02 08:01:30;;;;;;;15.70;10.73;;;4.10;99.90;;;;;;5090653;28;20429;-54
2023/03/02 08:03:57;;;;;;;14.90;10.27;;;4.20;99.90;;;;;;5075394;28;20415;-50
2023/03/02 08:06:26;;;;;;;17.30;10.57;;;4.40;99.90;;;;;;5085641;28;20460;-51
2023/03/02 08:08:53;;;;;;;17.52;10.52;;;4.50;99.90;;;;;;5084989;28;20437;-53
2023/03/02 08:11:21;;;;;;;16.08;10.60;;;4.60;99.90;;;;;;5074946;28;20475;-49
2023/03/02 08:13:48;;;;;;;13.90;9.73;;;4.70;99.90;;;;;;5081591;28;20668;-49
2023/03/02 08:16:16;;;;;;;15.73;9.60;;;4.80;99.90;;;;;;5081359;28;20421;-49
2023/03/02 08:18:43;;;;;;;14.93;10.48;;;4.90;99.90;;;;;;5073229;28;20412;-48
2023/03/02 08:21:16;;;;;;;17.52;10.75;;;4.70;99.90;;;;;;5084322;28;20433;-47
2023/03/02 08:23:45;;;;;;;18.25;10.23;;;4.60;99.90;;;;;;5078759;28;20414;-49
2023/03/02 08:26:13;;;;;;;17.70;10.68;;;4.50;99.90;;;;;;5078139;28;20427;-51
2023/03/02 08:28:40;;;;;;;16.90;10.10;;;4.20;99.90;;;;;;5084805;28;20436;-52
2023/03/02 08:31:09;;;;;;;17.00;10.30;;;4.30;99.90;;;;;;5073335;28;20437;-59
2023/03/02 08:33:37;;;;;;;15.85;10.55;;;4.20;99.90;;;;;;5083562;28;20428;-61
2023/03/02 08:36:06;;;;;;;14.38;10.50;;;4.20;99.90;;;;;;5081816;28;20444;-60
2023/03/02 08:38:35;;;;;;;15.07;9.85;;;3.90;99.90;;;;;;5077668;28;20794;-60
2023/03/02 08:41:06;;;;;;;16.33;9.85;;;3.80;99.90;;;;;;5090954;28;20425;-60
2023/03/02 08:43:35;;;;;;;15.70;9.80;;;4.00;99.90;;;;;;5081348;28;20860;-61
2023/03/02 08:46:02;;;;;;;17.48;10.30;;;4.20;99.90;;;;;;5081750;28;20459;-60
2023/03/02 08:48:30;;;;;;;17.30;10.40;;;4.60;99.90;;;;;;5087045;28;20432;-60
2023/03/02 08:50:59;;;;;;;15.07;9.30;;;4.50;99.90;;;;;;5075931;28;20881;-60
2023/03/02 08:53:27;;;;;;;17.33;10.90;;;4.60;99.90;;;;;;5086459;28;20427;-60
2023/03/02 08:55:54;;;;;;;14.10;9.35;;;4.80;99.90;;;;;;5081805;28;20534;-59
2023/03/02 08:58:23;;;;;;;15.07;10.40;;;5.20;99.90;;;;;;5078870;28;20617;-59
2023/03/02 09:00:51;;;;;;;14.85;9.73;;;5.50;99.90;;;;;;5089326;28;20410;-60
2023/03/02 09:03:18;;;;;;;16.23;10.05;;;5.70;99.90;;;;;;5088771;28;20426;-60
2023/03/02 09:05:45;;;;;;;14.15;9.40;;;5.30;99.90;;;;;;5078427;28;20414;-59
2023/03/02 09:08:12;;;;;;;13.70;9.50;;;5.10;99.90;;;;;;5079848;28;20423;-59
2023/03/02 09:10:40;;;;;;;16.60;10.63;;;5.50;99.90;;;;;;5087078;28;20430;-59
2023/03/02 09:13:07;;;;;;;13.38;8.65;;;5.60;99.90;;;;;;5075622;28;20436;-59
2023/03/02 09:15:35;;;;;;;14.00;9.40;;;5.70;99.90;;;;;;5091933;28;20417;-59
2023/03/02 09:18:02;;;;;;;15.32;10.10;;;5.70;99.90;;;;;;5082904;28;20431;-59
2023/03/02 09:20:30;;;;;;;16.77;10.15;;;6.00;99.90;;;;;;5088704;28;20406;-60
2023/03/02 09:22:57;;;;;;;17.73;10.50;;;5.80;99.90;;;;;;5091447;28;20433;-59
2023/03/02 09:25:24;;;;;;;15.13;8.95;;;5.30;99.90;;;;;;5077472;28;20413;-59
2023/03/02 09:27:51;;;;;;;15.63;8.95;;;5.50;99.90;;;;;;5083665;28;20420;-59
2023/03/02 09:30:18;;;;;;;13.20;9.10;;;5.60;99.90;;;;;;5081592;28;20606;-59
2023/03/02 09:32:47;;;;;;;13.97;9.93;;;5.60;99.90;;;;;;5088607;28;20414;-60
2023/03/02 09:35:15;;;;;;;13.00;8.83;;;5.50;99.90;;;;;;5077922;28;20482;-60
2023/03/02 09:37:42;;;;;;;15.10;9.85;;;5.60;99.90;;;;;;5082832;28;20631;-59
2023/03/02 09:40:18;;;;;;;13.35;8.63;;;5.70;99.90;;;;;;5083524;28;20733;-59
2023/03/02 09:42:56;;;;;;;14.10;8.02;;;5.90;99.90;;;;;;5074878;28;20835;-59
2023/03/02 09:45:51;;;;;;;13.63;9.40;;;6.00;99.90;;;;;;5083154;28;20975;-60
2023/03/02 09:48:31;;;;;;;15.43;8.75;;;6.00;99.90;;;;;;5085145;28;20452;-60
2023/03/02 09:51:12;;;;;;;12.85;8.70;;;5.90;99.90;;;;;;5091256;28;20422;-60
2023/03/02 09:53:47;;;;;;;14.10;8.23;;;5.90;99.90;;;;;;5082672;28;20434;-60
2023/03/02 09:56:17;;;;;;;13.30;8.90;;;5.90;99.90;;;;;;5084762;28;20757;-60
2023/03/02 09:58:52;;;;;;;13.32;8.82;;;6.00;99.90;;;;;;5074802;28;20719;-58
2023/03/02 10:01:29;;;;;;;12.60;8.77;;;5.90;99.90;;;;;;5086373;28;20570;-59
2023/03/02 10:04:05;;;;;;;12.23;9.02;;;6.10;99.90;;;;;;5080740;28;20421;-59
2023/03/02 10:06:32;;;;;;;11.93;7.77;;;6.20;99.90;;;;;;5084190;28;20425;-59
2023/03/02 10:08:59;;;;;;;13.77;8.85;;;6.30;99.90;;;;;;5080138;28;20761;-59
2023/03/02 10:11:36;;;;;;;10.95;7.55;;;6.20;99.90;;;;;;5085864;28;20439;-59
2023/03/02 10:14:10;;;;;;;12.18;7.80;;;6.20;99.90;;;;;;5079683;28;20451;-59
2023/03/02 10:16:47;;;;;;;12.40;8.93;;;6.30;99.90;;;;;;5071275;28;20428;-61
2023/03/02 10:19:23;;;;;;;14.50;10.07;;;6.40;99.90;;;;;;5080805;28;20441;-59
2023/03/02 10:21:57;;;;;;;13.20;7.88;;;6.60;99.90;;;;;;5081546;28;20882;-60
2023/03/02 10:24:35;;;;;;;13.52;8.20;;;6.80;99.90;;;;;;5084142;28;20436;-60
2023/03/02 10:27:13;;;;;;;13.53;8.93;;;7.00;99.90;;;;;;5072956;28;20432;-60
2023/03/02 10:29:47;;;;;;;11.77;8.23;;;7.00;99.90;;;;;;5079223;28;20432;-60
2023/03/02 10:32:19;;;;;;;11.82;7.88;;;6.80;99.90;;;;;;5081605;28;20425;-61
2023/03/02 10:34:49;;;;;;;13.15;8.57;;;6.70;99.90;;;;;;5083721;28;20712;-63
2023/03/02 10:37:18;;;;;;;12.68;8.07;;;6.70;99.90;;;;;;5075102;28;20427;-60
2023/03/02 10:39:45;;;;;;;13.55;8.82;;;6.80;99.90;;;;;;5079288;28;20418;-58
2023/03/02 10:42:17;;;;;;;12.10;8.60;;;6.90;99.90;;;;;;5086036;28;20418;-59
2023/03/02 10:44:48;;;;;;;14.85;9.48;;;6.90;99.90;;;;;;5076983;28;20475;-61
2023/03/02 10:47:25;;;;;;;13.90;8.17;;;6.80;99.90;;;;;;5085466;28;20785;-61
2023/03/02 10:49:54;;;;;;;11.43;7.72;;;6.80;99.90;;;;;;5080376;28;20437;-60
2023/03/02 10:52:23;;;;;;;13.73;7.97;;;6.80;99.90;;;;;;5082256;28;20429;-60
2023/03/02 10:55:01;;;;;;;10.73;7.35;;;6.90;99.90;;;;;;5089505;28;20859;-67
2023/03/02 10:57:37;;;;;;;10.95;7.60;;;7.00;99.90;;;;;;5081531;28;20423;-66
2023/03/02 11:00:14;;;;;;;16.23;9.55;;;7.30;99.90;;;;;;5084580;28;20837;-67
2023/03/02 11:02:52;;;;;;;13.07;8.68;;;7.40;99.90;;;;;;5071933;28;20846;-66
2023/03/02 11:05:27;;;;;;;11.60;7.80;;;7.70;99.90;;;;;;5077411;28;20431;-67
2023/03/02 11:07:56;;;;;;;12.63;8.80;;;7.80;99.90;;;;;;5080236;28;20548;-67
2023/03/02 11:10:25;;;;;;;14.75;9.50;;;7.50;99.90;;;;;;5078894;28;20474;-67
2023/03/02 11:12:53;;;;;;;14.40;9.50;;;7.40;99.90;;;;;;5076783;28;20426;-67
2023/03/02 11:15:25;;;;;;;12.27;9.10;;;7.70;99.90;;;;;;5082235;28;20858;-67
2023/03/02 11:18:00;;;;;;;12.85;9.18;;;7.90;99.90;;;;;;5079572;28;20423;-67
2023/03/02 11:20:32;;;;;;;12.63;8.32;;;8.10;99.90;;;;;;5080732;28;20509;-67
2023/03/02 11:23:21;;;;;;;14.02;7.90;;;8.40;99.90;;;;;;5078691;28;20433;-67
2023/03/02 11:25:53;;;;;;;9.82;7.53;;;8.40;99.90;;;;;;5090294;28;20420;-68
2023/03/02 11:28:36;;;;;;;13.13;9.55;;;8.70;99.90;;;;;;5089662;28;20575;-67
2023/03/02 11:31:06;;;;;;;12.23;7.80;;;8.70;99.90;;;;;;5089332;28;20440;-67
2023/03/02 11:33:39;;;;;;;12.95;8.20;;;9.10;99.90;;;;;;5088807;28;20418;-67
2023/03/02 11:36:14;;;;;;;13.87;8.77;;;9.20;99.90;;;;;;5073861;28;20427;-68
2023/03/02 11:38:47;;;;;;;12.75;8.95;;;9.30;99.90;;;;;;5070278;28;20415;-65
2023/03/02 11:41:26;;;;;;;12.70;9.20;;;9.50;99.90;;;;;;5068470;28;20442;-68
2023/03/02 11:43:53;;;;;;;11.05;7.10;;;9.80;99.90;;;;;;5071054;28;20739;-67
2023/03/02 11:46:24;;;;;;;13.40;9.50;;;10.00;99.90;;;;;;5070888;28;20451;-68
2023/03/02 11:48:55;;;;;;;14.13;9.05;;;9.90;99.90;;;;;;5078145;28;20482;-68
2023/03/02 11:51:26;;;;;;;12.30;8.95;;;9.90;99.90;;;;;;5071818;28;20438;-68
2023/03/02 11:53:58;;;;;;;14.05;8.98;;;9.60;99.90;;;;;;5070683;28;20424;-66
2023/03/02 11:56:26;;;;;;;12.77;8.00;;;9.50;99.90;;;;;;5069417;28;20517;-67
2023/03/02 11:58:58;;;;;;;11.33;8.10;;;9.50;99.90;;;;;;5070770;28;20428;-67
2023/03/02 12:01:27;;;;;;;12.85;8.52;;;9.50;99.90;;;;;;5071892;28;20925;-67
2023/03/02 12:04:05;;;;;;;10.55;8.63;;;9.70;99.90;;;;;;5071760;28;20514;-67
2023/03/02 12:06:39;;;;;;;11.40;8.40;;;9.90;99.90;;;;;;5071604;28;20419;-67
2023/03/02 12:09:32;;;;;;;14.43;9.20;;;10.20;99.90;;;;;;5069997;28;20427;-67
2023/03/02 12:12:14;;;;;;;12.00;8.57;;;10.20;99.90;;;;;;5074640;28;20913;-67
2023/03/02 12:14:42;;;;;;;11.48;7.32;;;9.90;99.90;;;;;;5074089;28;21038;-67
2023/03/02 12:17:22;;;;;;;12.23;9.15;;;10.40;99.90;;;;;;5073265;28;20851;-68
2023/03/02 12:19:50;;;;;;;9.82;7.60;;;10.60;99.90;;;;;;5071402;28;20423;-66
2023/03/02 12:22:28;;;;;;;12.00;8.60;;;10.60;99.90;;;;;;5071214;28;20450;-67
2023/03/02 12:25:05;;;;;;;10.70;8.20;;;10.80;99.90;;;;;;5072967;28;20780;-67
2023/03/02 12:27:38;;;;;;;13.07;8.95;;;11.00;99.90;;;;;;5075330;28;20434;-66
2023/03/02 12:30:25;;;;;;;11.23;8.23;;;10.80;99.90;;;;;;5073935;28;20420;-67
2023/03/02 12:33:02;;;;;;;10.80;7.50;;;10.90;99.90;;;;;;5071240;28;20876;-66
2023/03/02 12:35:31;;;;;;;10.40;7.90;;;10.50;99.90;;;;;;5073089;28;20423;-67
2023/03/02 12:38:04;;;;;;;11.80;8.43;;;10.50;99.90;;;;;;5073932;28;20434;-67
2023/03/02 12:40:56;;;;;;;11.10;7.40;;;10.70;99.90;;;;;;5074574;28;20422;-67
2023/03/02 12:43:29;;;;;;;12.02;7.65;;;10.80;99.90;;;;;;5072946;28;20532;-65
2023/03/02 12:46:26;;;;;;;8.83;6.90;;;10.80;99.90;;;;;;5073715;28;20508;-65
2023/03/02 12:49:05;;;;;;;10.60;7.07;;;10.90;99.90;;;;;;5074211;28;20434;-66
2023/03/02 12:51:45;;;;;;;9.73;6.90;;;10.70;99.90;;;;;;5080020;28;20437;-66
2023/03/02 12:54:16;;;;;;;11.02;7.28;;;10.50;99.90;;;;;;5094793;28;20426;-66